Detall de PIREP

Printer-friendly versionPDF version

[2014/09/26 08:35:00]
Flight IATA:CT3405
Pilot Number:012
Company ICAO:CAT
Aircraft Type:DC85/A
PAX:132
Aircraft Registration:PAX
Departing Airport: GCLP
Destination Airport: LEBL
Alternate Airport:LEPA
Online: VATSIM
Route:KORAL UN871 OSDAM UB28 BARPA UM985 PIMOS UM445 BEGOX UN860 VLC UM985 SOPET UN608 MATEX
Flight Level:F380
No Slew and time accel
No pause
Crash detect
Detect pilot in Cockpit between each 30 and 45 minutes
08:35 Zero fuel Weight: 161455 Lbs, Fuel Weight: 57043 Lbs
08:35 VATSIM:GCLP 260800Z 01011KT 9999 FEW025 24/17 Q1019 NOSIG
08:35 VATSIM:LEBL 260800Z 33007KT 260V350 9000 FEW020 18/13 Q1023 NOSIG
08:43 Parking Brakes off
08:50 Take-off
08:50 Take off Weight: 217393 Lbs
08:50 Wind: 015º @ 011 Knots Heading: 021º
08:50 POS N27º 55´ 57´´ W015º 23´ 01´´
08:50 Gear Up: 168 Knots
08:50 Flaps:2 at 168 Knots
08:50 Flaps:1 at 197 Knots
08:51 Flaps:0 at 230 Knots
09:05 Wind:249º@053 Knots Heading: 054º Ground Speed: 447 Knots Altitude 36610 ft
09:06 TOC
09:06 Fuel Weight: 50940 Lb
09:20 Wind:252º@050 Knots Heading: 053º Ground Speed: 535 Knots Altitude 38159 ft
09:35 Wind:273º@047 Knots Heading: 053º Ground Speed: 501 Knots Altitude 38136 ft
09:50 Wind:274º@040 Knots Heading: 028º Ground Speed: 501 Knots Altitude 38152 ft
10:05 Wind:274º@049 Knots Heading: 028º Ground Speed: 509 Knots Altitude 38152 ft
10:20 Wind:271º@028 Knots Heading: 060º Ground Speed: 510 Knots Altitude 38185 ft
10:35 Wind:270º@029 Knots Heading: 043º Ground Speed: 512 Knots Altitude 38248 ft
10:50 Wind:102º@022 Knots Heading: 054º Ground Speed: 476 Knots Altitude 38297 ft
11:05 Wind:090º@056 Knots Heading: 022º Ground Speed: 468 Knots Altitude 38290 ft
11:07 TOD
11:07 Fuel Weight: 26723 Lb
11:20 Wind:090º@010 Knots Heading: 068º Ground Speed: 255 Knots Altitude 12339 ft
11:20 Flaps:1 at 217 Knots
11:25 Flaps:2 at 204 Knots
11:27 Flaps:3 at 174 Knots
11:30 Gear Down: 140 Knots
11:30 Flaps:4 at 138 Knots
11:30 Flaps:5 at 145 Knots
11:34 TouchDown:Rate -158 ft/min Speed: 135 Knots
11:34 Flaps:4 at 63 Knots
11:34 Flaps:0 at 56 Knots
11:34 VATSIM:LEBL 261100Z 12006KT 080V160 9999 FEW020 22/13 Q1024 NOSIG
11:34 Land
11:34 Wind:110º@006 Knots
11:34 Heading: 245º
11:34 Flight Duration: 02:44
11:34 Landing Weight: 185317 Lbs
11:34 POS N41º 18´ 01´´ E002º 05´ 18´´
11:38 Parking brakes on
11:38 Block to Block Duration: 02:55
11:38 Final Fuel: 23465 Lbls
11:38 Spent Fuel: 33578 Lbls
11:38 Flight Length: 1237 NM
11:38 TOD Land Length: 121 NM

Exportar CSV

Powered by Drupal - Modified by Danger4k